Escribe el Código OACI del Aeropuerto

Buscar por Aeropuerto o Ciudad

Información Meteorológica Actual

SAZM | Astor Piazzolla International Airport

Mar del Plata, Buenos Aires, Argentina

Última Actualización Hace 52 Minutos

Cielo Parcialmente Nublado

23 ºC de Temperatura

Vientos Moderados del Este

Temperatura

23 ºC

Temperatura del Punto de Rocío

18 ºC

Humedad Relativa

73.6 %

Dirección del Viento

Este (070º, Sin Variaciones de Consideración)

Velocidad del Viento

26 km/h (14 kt)

Ráfagas

No Hay

Visibilidad

Mayor a 10 kilómetros

Presión Reducida a Nivel del Mar

1021 hPa (Hectopascales)

Capas de Nubes

30% a 60% de Cielo Cubierto con Base a 914 mts (3000 ft) de Altura.

METAR SAZM 071500Z 07014KT 9999 SCT030 23/18 Q1021 RMK PP///

Pronóstico Meteorológico

SAZM | Astor Piazzolla International Airport

Mar del Plata, Buenos Aires, Argentina

Pronóstico válido para las próximas 20 Horas

En las próximas 2 horas se espera el comienzo de:

Cielo Parcialmente Nublado

Vientos Moderados a Fuertes del NorEste con Ráfagas

En 11 a 14 horas se espera el comienzo de:

Cielo Despejado

Vientos Moderados del Norte

Temperatura Máxima

22 ºC en 2 Horas

Temperatura Mínima

16 ºC en 18 Horas

TAF SAZM 071100Z 0712/0812 02010KT 9999 BKN020 TX22/0718Z TN16/0810Z BECMG 0715/0718 05020G30KT 9999 SCT040 BECMG 0803/0806 36010KT CAVOK